createdAt,value
2023-03-26T00:03:55.561Z,15.13
2023-03-26T00:08:59.270Z,14.60
2023-03-26T00:14:03.083Z,15.32
2023-03-26T00:19:06.185Z,14.98
2023-03-26T00:24:15.456Z,14.18
2023-03-26T00:29:19.032Z,14.93
2023-03-26T00:34:23.351Z,15.20
2023-03-26T00:39:26.177Z,14.60
2023-03-26T00:44:29.129Z,16.92
2023-03-26T00:49:32.368Z,14.88
2023-03-26T00:54:35.913Z,14.98
2023-03-26T00:59:38.856Z,13.70
2023-03-26T01:04:45.878Z,16.30
2023-03-26T01:09:53.416Z,14.10
2023-03-26T01:15:00.988Z,13.35
2023-03-26T01:20:20.803Z,12.98
2023-03-26T01:25:24.496Z,13.68
2023-03-26T01:30:50.018Z,14.98
2023-03-26T01:36:21.574Z,12.18
2023-03-26T01:41:54.666Z,14.95
2023-03-26T01:46:59.765Z,12.60
2023-03-26T01:52:02.676Z,14.55
2023-03-26T01:57:37.651Z,13.50
2023-03-26T02:08:26.313Z,13.48
2023-03-26T02:13:29.102Z,12.25
2023-03-26T02:18:39.362Z,11.52
2023-03-26T02:23:47.265Z,11.98
2023-03-26T02:28:50.615Z,10.82
2023-03-26T02:33:55.765Z,9.98
2023-03-26T02:39:00.642Z,11.45
2023-03-26T02:44:07.251Z,9.93
2023-03-26T02:49:45.532Z,10.60
2023-03-26T02:54:55.015Z,11.07
2023-03-26T02:59:59.402Z,11.30
2023-03-26T03:05:14.392Z,9.40
2023-03-26T03:10:17.209Z,10.30
2023-03-26T03:20:45.182Z,9.82
2023-03-26T03:25:48.355Z,8.55
2023-03-26T03:30:54.354Z,8.85
2023-03-26T03:36:20.846Z,8.73
2023-03-26T03:41:33.383Z,9.40
2023-03-26T03:46:39.379Z,8.52
2023-03-26T03:51:42.900Z,8.20
2023-03-26T03:56:57.367Z,8.57
2023-03-26T04:02:30.595Z,7.63
2023-03-26T04:07:37.988Z,7.20
2023-03-26T04:12:40.868Z,6.57
2023-03-26T04:17:46.733Z,6.13
2023-03-26T04:22:53.172Z,6.60
2023-03-26T04:28:06.855Z,7.00
2023-03-26T04:33:35.714Z,5.55
2023-03-26T04:38:45.415Z,5.80
2023-03-26T04:43:50.942Z,5.63
2023-03-26T04:49:11.917Z,5.78
2023-03-26T04:54:17.177Z,5.22
2023-03-26T04:59:33.584Z,5.10
2023-03-26T05:04:41.189Z,4.93
2023-03-26T05:09:44.622Z,4.70
2023-03-26T05:14:51.464Z,4.72
2023-03-26T05:20:22.123Z,4.70
2023-03-26T05:25:25.055Z,4.22
2023-03-26T05:30:28.331Z,3.70
2023-03-26T05:35:35.709Z,3.17
2023-03-26T05:40:39.378Z,2.90
2023-03-26T05:45:43.490Z,3.88
2023-03-26T05:50:58.033Z,3.05
2023-03-26T05:56:04.669Z,2.70
2023-03-26T06:01:30.342Z,2.45
2023-03-26T06:06:53.047Z,2.95
2023-03-26T06:11:56.298Z,2.58
2023-03-26T06:16:59.271Z,2.40
2023-03-26T06:22:02.206Z,2.30
2023-03-26T06:27:20.363Z,2.20
2023-03-26T06:32:49.460Z,2.53
2023-03-26T06:37:58.037Z,3.03
2023-03-26T06:43:09.008Z,3.05
2023-03-26T06:48:34.042Z,2.38
2023-03-26T06:53:49.153Z,2.03
2023-03-26T06:59:01.396Z,3.15
2023-03-26T07:09:30.660Z,2.53
2023-03-26T07:14:51.648Z,3.00
2023-03-26T07:20:12.895Z,3.60
2023-03-26T07:25:17.897Z,3.13
2023-03-26T07:31:11.908Z,3.80
2023-03-26T07:37:00.091Z,3.15
2023-03-26T07:42:31.699Z,3.35
2023-03-26T07:48:27.719Z,3.63
2023-03-26T07:53:52.936Z,3.47
2023-03-26T07:59:19.951Z,3.88
2023-03-26T08:04:53.975Z,3.90
2023-03-26T08:10:27.054Z,4.17
2023-03-26T08:15:44.363Z,4.28
2023-03-26T08:20:50.815Z,3.78
2023-03-26T08:26:06.122Z,4.60
2023-03-26T08:31:10.795Z,5.18
2023-03-26T08:36:13.617Z,3.33
2023-03-26T08:41:37.915Z,3.47
2023-03-26T08:46:51.106Z,3.00
2023-03-26T08:52:24.890Z,3.05
2023-03-26T08:57:49.496Z,3.42
2023-03-26T09:03:20.071Z,3.23
2023-03-26T09:08:53.643Z,3.05
2023-03-26T09:14:31.433Z,4.00
2023-03-26T09:20:00.114Z,3.15
2023-03-26T09:25:41.983Z,3.38
2023-03-26T09:30:50.242Z,3.60
2023-03-26T09:36:16.313Z,3.05
2023-03-26T09:41:41.587Z,3.35
2023-03-26T09:52:03.529Z,3.90
2023-03-26T09:57:26.134Z,3.80
2023-03-26T10:03:16.487Z,3.13
2023-03-26T10:08:40.359Z,3.30
2023-03-26T10:14:04.310Z,3.75
2023-03-26T10:19:11.479Z,3.50
2023-03-26T10:24:29.632Z,3.80
2023-03-26T10:30:13.277Z,3.70
2023-03-26T10:35:53.281Z,3.83
2023-03-26T10:41:24.919Z,3.90
2023-03-26T10:46:48.998Z,3.40
2023-03-26T10:52:11.511Z,3.72
2023-03-26T10:57:26.667Z,3.55
2023-03-26T11:02:39.851Z,3.80
2023-03-26T11:07:52.171Z,4.00
2023-03-26T11:13:09.873Z,3.65
2023-03-26T11:18:39.663Z,3.83
2023-03-26T11:24:05.122Z,3.20
2023-03-26T11:29:32.434Z,3.17
2023-03-26T11:34:51.244Z,3.60
2023-03-26T11:39:57.231Z,4.70
2023-03-26T11:45:06.040Z,4.30
2023-03-26T11:50:17.385Z,3.42
2023-03-26T11:55:20.308Z,3.67
2023-03-26T12:00:23.656Z,3.33
2023-03-26T12:05:31.674Z,3.30
2023-03-26T12:10:39.317Z,3.05
2023-03-26T12:15:44.895Z,3.78
2023-03-26T12:20:48.553Z,3.78
2023-03-26T12:26:06.402Z,3.10
2023-03-26T12:31:18.453Z,4.25
2023-03-26T12:36:27.063Z,3.70
2023-03-26T12:42:52.812Z,3.45
2023-03-26T12:48:01.349Z,3.63
2023-03-26T12:52:42.235Z,3.90
2023-03-26T12:58:13.831Z,3.53
2023-03-26T13:03:33.175Z,3.05
2023-03-26T13:08:47.571Z,3.40
2023-03-26T13:13:53.096Z,3.10
2023-03-26T13:19:04.839Z,3.70
2023-03-26T13:24:41.393Z,3.83
2023-03-26T13:30:02.119Z,3.92
2023-03-26T13:35:17.999Z,4.88
2023-03-26T13:40:30.087Z,4.70
2023-03-26T13:45:46.203Z,5.22
2023-03-26T13:51:11.950Z,4.70
2023-03-26T13:56:17.876Z,5.68
2023-03-26T14:01:24.466Z,5.35
2023-03-26T14:06:49.159Z,5.18
2023-03-26T14:11:58.336Z,4.95
2023-03-26T14:17:07.270Z,5.10
2023-03-26T14:22:18.635Z,6.00
2023-03-26T14:27:34.489Z,6.05
2023-03-26T14:33:14.826Z,5.03
2023-03-26T14:38:35.944Z,4.95
2023-03-26T14:44:00.135Z,4.72
2023-03-26T14:49:40.684Z,4.53
2023-03-26T14:54:46.072Z,4.75
2023-03-26T15:00:26.244Z,4.72
2023-03-26T15:06:00.020Z,4.60
2023-03-26T15:11:17.677Z,4.90
2023-03-26T15:16:41.882Z,5.05
2023-03-26T15:22:13.305Z,6.40
2023-03-26T15:27:39.126Z,6.57
2023-03-26T15:33:14.701Z,6.93
2023-03-26T15:38:40.710Z,5.75
2023-03-26T15:44:23.629Z,4.93
2023-03-26T15:49:43.051Z,5.47
2023-03-26T15:54:59.555Z,6.20
2023-03-26T16:00:02.378Z,6.45
2023-03-26T16:05:24.625Z,5.07
2023-03-26T16:10:41.190Z,6.80
2023-03-26T16:15:47.773Z,6.45
2023-03-26T16:21:32.160Z,6.63
2023-03-26T16:26:44.810Z,5.68
2023-03-26T16:32:18.545Z,6.82
2023-03-26T16:37:40.078Z,6.78
2023-03-26T16:43:03.890Z,7.22
2023-03-26T16:48:27.662Z,6.75
2023-03-26T16:53:43.326Z,6.50
2023-03-26T16:58:49.764Z,6.30
2023-03-26T17:04:07.580Z,6.25
2023-03-26T17:09:32.110Z,6.13
2023-03-26T17:15:00.224Z,6.78
2023-03-26T17:20:21.405Z,6.07
2023-03-26T17:25:38.314Z,6.90
2023-03-26T17:31:03.851Z,6.35
2023-03-26T17:36:12.435Z,6.70
2023-03-26T17:41:55.778Z,6.50
2023-03-26T17:47:00.606Z,6.60
2023-03-26T17:52:16.093Z,7.03
2023-03-26T17:57:18.744Z,7.13
2023-03-26T18:02:25.598Z,7.28
2023-03-26T18:07:59.554Z,6.18
2023-03-26T18:13:09.003Z,7.63
2023-03-26T18:18:24.164Z,6.32
2023-03-26T18:28:36.300Z,6.53
2023-03-26T18:33:44.639Z,7.05
2023-03-26T18:38:49.106Z,7.18
2023-03-26T18:43:51.848Z,7.17
2023-03-26T18:48:55.996Z,7.15
2023-03-26T18:54:01.165Z,6.40
2023-03-26T18:59:32.396Z,6.68
2023-03-26T19:04:36.385Z,6.20
2023-03-26T19:09:39.542Z,7.03
2023-03-26T19:15:11.004Z,6.43
2023-03-26T19:20:21.332Z,6.47
2023-03-26T19:25:50.389Z,6.47
2023-03-26T19:30:58.356Z,6.13
2023-03-26T19:36:18.273Z,6.35
2023-03-26T19:41:26.945Z,6.55
2023-03-26T19:46:33.765Z,7.25
2023-03-26T19:52:15.228Z,6.60
2023-03-26T19:57:17.942Z,6.47
2023-03-26T20:02:20.787Z,7.47
2023-03-26T20:07:35.307Z,6.95
2023-03-26T20:12:39.051Z,7.05
2023-03-26T20:17:43.180Z,6.65
2023-03-26T20:22:47.351Z,6.57
2023-03-26T20:27:51.269Z,7.30
2023-03-26T20:33:11.804Z,6.95
2023-03-26T20:38:17.050Z,7.40
2023-03-26T20:43:22.118Z,6.60
2023-03-26T20:48:27.438Z,7.95
2023-03-26T20:58:33.579Z,7.50
2023-03-26T21:03:36.367Z,7.53
2023-03-26T21:08:40.198Z,7.00
2023-03-26T21:13:50.531Z,7.45
2023-03-26T21:18:53.741Z,7.00
2023-03-26T21:24:15.047Z,6.20
2023-03-26T21:29:18.254Z,6.88
2023-03-26T21:34:22.623Z,6.68
2023-03-26T21:39:26.031Z,6.70
2023-03-26T21:44:29.071Z,6.68
2023-03-26T21:49:32.089Z,8.38
2023-03-26T21:54:35.135Z,6.75
2023-03-26T21:59:51.752Z,6.05
2023-03-26T22:05:26.815Z,6.72
2023-03-26T22:10:30.538Z,6.43
2023-03-26T22:15:34.334Z,6.63
2023-03-26T22:20:37.987Z,7.30
2023-03-26T22:25:40.863Z,6.38
2023-03-26T22:30:43.573Z,7.93
2023-03-26T22:35:46.494Z,6.85
2023-03-26T22:40:56.694Z,6.97
2023-03-26T22:45:59.864Z,7.07
2023-03-26T22:51:08.412Z,7.32
2023-03-26T22:56:12.223Z,6.90
2023-03-26T23:01:21.691Z,7.63
2023-03-26T23:06:24.420Z,6.80
2023-03-26T23:11:29.876Z,7.20
2023-03-26T23:21:37.052Z,8.32
2023-03-26T23:26:49.604Z,7.50
2023-03-26T23:31:54.300Z,8.23
2023-03-26T23:36:58.372Z,6.97
2023-03-26T23:42:01.163Z,6.80
2023-03-26T23:47:10.199Z,6.07
2023-03-26T23:52:13.000Z,6.35
2023-03-26T23:57:16.101Z,7.75
